Cranston, Rhode Island
Current Conditions -  °F | °C
As of 8:51 PM on Thursday 18 Dec 2014 (Local Time) from KPVD Reporting Station
Scattered Clouds Scattered Clouds  
Wind Chill: 36°   Ceiling: Unl
Heat Index: 36°   Visibility: 10mi
Dew Point: 26°   Wind: 3mph
Humidity: 67%   Direction: 280°W
Pressure: 29.89"   Gusts: NA
Location:  41.78°N, 71.43°W
Report Text: KPVD 190151Z 28003KT 10SM SCT033 02/M03 A2989 RMK AO2 SLP120 T00221033
Loading
Personal Weather Stations






























Interactive Weather Map New forecast layout! Learn more

10-Day Weather Forecast

Advertisements
Track Severe Weather on mobile